Time;durP1;ratioP1;P1;durP2;ratioP2;P2;SDS_P1;SDS_P2;PMS_P1;PMS_P2;Temp;Humidity;BMP_temperature;BMP_pressure;BME280_temperature;BME280_humidity;BME280_pressure;Samples;Min_cycle;Max_cycle;Signal;HPM_P1;HPM_P2
2023/08/12 00:01:50;;;;;;;10.55;8.10;;;21.40;99.90;;;;;;4969510;28;20397;-77
2023/08/12 00:04:16;;;;;;;11.25;8.25;;;21.40;99.90;;;;;;4985013;28;20046;-78
2023/08/12 00:06:42;;;;;;;11.27;7.53;;;21.40;99.90;;;;;;4970712;28;20050;-78
2023/08/12 00:09:10;;;;;;;10.70;8.53;;;21.40;99.90;;;;;;4983466;28;20399;-78
2023/08/12 00:11:36;;;;;;;11.23;8.55;;;21.40;99.90;;;;;;4973858;28;20042;-77
2023/08/12 00:14:01;;;;;;;11.40;8.57;;;21.40;99.90;;;;;;4963008;28;20046;-78
2023/08/12 00:16:28;;;;;;;9.07;7.80;;;21.40;99.90;;;;;;4970686;28;20588;-74
2023/08/12 00:18:53;;;;;;;13.45;8.70;;;21.40;99.90;;;;;;4986363;28;20038;-78
2023/08/12 00:21:19;;;;;;;12.98;8.45;;;21.30;99.90;;;;;;4958467;28;20512;-78
2023/08/12 00:23:47;;;;;;;13.18;8.38;;;21.30;99.90;;;;;;4978723;28;20520;-78
2023/08/12 00:26:13;;;;;;;11.25;8.60;;;21.20;99.90;;;;;;4964983;28;20082;-78
2023/08/12 00:28:39;;;;;;;11.63;8.82;;;21.20;99.90;;;;;;4976864;28;20133;-78
2023/08/12 00:31:05;;;;;;;11.52;8.75;;;21.20;99.90;;;;;;4984857;28;20093;-78
2023/08/12 00:33:30;;;;;;;13.23;9.70;;;21.20;99.90;;;;;;4976708;28;20112;-78
2023/08/12 00:35:56;;;;;;;14.55;9.10;;;21.20;99.90;;;;;;4985191;28;20046;-78
2023/08/12 00:38:22;;;;;;;13.10;9.25;;;21.20;99.90;;;;;;4984452;28;20111;-78
2023/08/12 00:40:48;;;;;;;12.07;9.32;;;21.10;99.90;;;;;;4982957;28;20133;-78
2023/08/12 00:43:13;;;;;;;11.43;8.98;;;21.10;99.90;;;;;;4981450;28;20089;-78
2023/08/12 00:45:40;;;;;;;11.35;8.75;;;21.10;99.90;;;;;;4978320;28;20092;-78
2023/08/12 00:48:07;;;;;;;13.27;10.00;;;21.10;99.90;;;;;;4980476;28;20081;-78
2023/08/12 00:50:34;;;;;;;12.18;9.48;;;21.10;99.90;;;;;;4981077;28;20417;-78
2023/08/12 00:53:00;;;;;;;14.43;9.27;;;21.00;99.90;;;;;;4962979;28;20466;-77
2023/08/12 00:55:26;;;;;;;11.88;9.13;;;21.00;99.90;;;;;;4979168;28;20337;-77
2023/08/12 00:57:51;;;;;;;13.30;9.77;;;21.00;99.90;;;;;;4963606;28;20050;-77
2023/08/12 01:00:20;;;;;;;13.40;10.10;;;21.00;99.90;;;;;;4967068;28;20401;-77
2023/08/12 01:02:48;;;;;;;12.48;10.00;;;21.00;99.90;;;;;;4975066;28;20050;-77
2023/08/12 01:05:17;;;;;;;12.57;9.90;;;20.90;99.90;;;;;;4975923;28;20043;-77
2023/08/12 01:07:45;;;;;;;13.32;10.05;;;21.00;99.90;;;;;;4967104;28;20054;-77
2023/08/12 01:10:14;;;;;;;15.73;10.80;;;21.00;99.90;;;;;;4975231;28;20057;-78
2023/08/12 01:13:24;;;;;;;14.95;10.73;;;20.90;99.90;;;;;;4960714;28;20038;-78
2023/08/12 01:15:53;;;;;;;14.45;10.38;;;20.90;99.90;;;;;;4907592;29;20154;-77
2023/08/12 01:18:20;;;;;;;13.75;10.52;;;20.90;99.90;;;;;;4970060;28;20062;-77
2023/08/12 01:20:47;;;;;;;14.07;10.10;;;20.90;99.90;;;;;;4986896;28;20096;-77
2023/08/12 01:23:16;;;;;;;12.82;10.05;;;21.00;99.90;;;;;;4966890;28;20053;-78
2023/08/12 01:25:42;;;;;;;12.57;10.07;;;20.90;99.90;;;;;;4986248;28;20498;-77
2023/08/12 01:28:08;;;;;;;12.68;9.82;;;20.90;99.90;;;;;;4976934;28;20054;-78
2023/08/12 01:30:41;;;;;;;12.10;9.82;;;20.90;99.90;;;;;;4981670;28;20043;-77
2023/08/12 01:33:19;;;;;;;12.77;9.73;;;20.90;99.90;;;;;;4979037;28;20593;-78
2023/08/12 01:35:53;;;;;;;11.82;10.13;;;20.90;99.90;;;;;;4969361;28;20061;-77
2023/08/12 01:38:20;;;;;;;14.40;10.35;;;20.90;99.90;;;;;;4976271;28;20073;-78
2023/08/12 01:40:48;;;;;;;12.15;10.00;;;20.90;99.90;;;;;;4965233;28;20082;-77
2023/08/12 01:43:13;;;;;;;;;;;20.90;99.90;;;;;;4974526;28;20047;-78
2023/08/12 01:45:40;;;;;;;13.90;9.87;;;20.80;99.90;;;;;;4988204;28;19976;-77
2023/08/12 01:48:06;;;;;;;11.60;9.80;;;20.80;99.90;;;;;;4991587;28;20152;-77
2023/08/12 01:50:32;;;;;;;12.57;10.02;;;20.80;99.90;;;;;;4988898;28;20062;-78
2023/08/12 01:52:58;;;;;;;13.38;10.07;;;20.80;99.90;;;;;;4991109;28;20046;-77
2023/08/12 01:55:24;;;;;;;13.23;10.82;;;20.80;99.90;;;;;;4987333;28;20042;-77
2023/08/12 01:57:49;;;;;;;14.23;11.32;;;20.80;99.90;;;;;;4971199;28;20386;-78
2023/08/12 02:00:16;;;;;;;13.50;11.70;;;20.80;99.90;;;;;;4986117;28;20061;-78
2023/08/12 02:02:41;;;;;;;16.98;11.60;;;20.80;99.90;;;;;;4991671;28;20046;-78
2023/08/12 02:05:07;;;;;;;13.13;11.00;;;20.80;99.90;;;;;;4994434;28;20102;-78
2023/08/12 02:07:33;;;;;;;15.00;11.25;;;20.80;99.90;;;;;;4988550;28;20054;-77
2023/08/12 02:09:59;;;;;;;16.30;11.98;;;20.80;99.90;;;;;;4994410;28;20053;-78
2023/08/12 02:12:24;;;;;;;16.35;12.70;;;20.70;99.90;;;;;;4988540;28;20043;-78
2023/08/12 02:14:50;;;;;;;17.63;13.55;;;20.70;99.90;;;;;;4986564;28;20372;-78
2023/08/12 02:17:15;;;;;;;14.45;12.50;;;20.70;99.90;;;;;;4983536;28;20117;-78
2023/08/12 02:19:41;;;;;;;17.75;13.10;;;20.70;99.90;;;;;;4989004;28;20699;-78
2023/08/12 02:22:07;;;;;;;15.18;12.35;;;20.70;99.90;;;;;;4994165;28;20492;-78
2023/08/12 02:24:33;;;;;;;16.38;12.57;;;20.70;99.90;;;;;;4977250;28;20055;-78
2023/08/12 02:26:58;;;;;;;14.65;12.40;;;20.70;99.90;;;;;;4989009;28;20047;-78
2023/08/12 02:29:24;;;;;;;16.02;12.57;;;20.70;99.90;;;;;;4995070;28;20039;-78
2023/08/12 02:31:50;;;;;;;15.75;13.85;;;20.70;99.90;;;;;;4988854;28;20059;-78
2023/08/12 02:34:15;;;;;;;15.98;13.63;;;20.70;99.90;;;;;;4995406;28;20026;-78
2023/08/12 02:36:41;;;;;;;18.05;14.32;;;20.70;99.90;;;;;;4988435;28;20103;-78
2023/08/12 02:39:07;;;;;;;17.08;13.23;;;20.60;99.90;;;;;;4964644;28;20146;-77
2023/08/12 02:41:32;;;;;;;17.30;13.68;;;20.60;99.90;;;;;;4977083;28;20047;-78
2023/08/12 02:43:58;;;;;;;18.58;13.55;;;20.70;99.90;;;;;;4973573;28;20061;-78
2023/08/12 02:46:25;;;;;;;15.07;13.55;;;20.60;99.90;;;;;;4981320;28;20506;-77
2023/08/12 02:48:51;;;;;;;15.40;13.80;;;20.60;99.90;;;;;;4957446;28;20057;-78
2023/08/12 02:51:16;;;;;;;16.63;13.90;;;20.60;99.90;;;;;;4980701;28;20043;-77
2023/08/12 02:53:42;;;;;;;16.75;14.32;;;20.60;99.90;;;;;;4971816;28;20109;-78
2023/08/12 02:56:08;;;;;;;18.33;14.90;;;20.50;99.90;;;;;;4985544;28;20043;-78
2023/08/12 02:58:34;;;;;;;17.90;13.65;;;20.50;99.90;;;;;;4973742;28;20457;-77
2023/08/12 03:00:59;;;;;;;17.45;14.38;;;20.50;99.90;;;;;;4977274;28;20733;-77
2023/08/12 03:03:25;;;;;;;18.00;14.73;;;20.50;99.90;;;;;;4967168;28;20161;-77
2023/08/12 03:05:51;;;;;;;17.02;14.43;;;20.60;99.90;;;;;;4968252;28;20609;-78
2023/08/12 03:08:16;;;;;;;16.45;14.45;;;20.50;99.90;;;;;;4983153;28;20057;-77
2023/08/12 03:10:44;;;;;;;17.27;14.85;;;20.50;99.90;;;;;;4979989;28;20046;-77
2023/08/12 03:13:09;;;;;;;18.98;15.23;;;20.50;99.90;;;;;;4962809;28;20094;-78
2023/08/12 03:15:39;;;;;;;18.02;14.65;;;20.40;99.90;;;;;;4977404;28;20517;-73
2023/08/12 03:18:04;;;;;;;20.30;15.77;;;20.40;99.90;;;;;;4979258;28;20609;-77
2023/08/12 03:20:30;;;;;;;16.17;14.07;;;20.40;99.90;;;;;;4983161;28;20125;-77
2023/08/12 03:22:55;;;;;;;20.00;15.70;;;20.40;99.90;;;;;;4969721;28;20050;-77
2023/08/12 03:25:22;;;;;;;17.98;15.73;;;20.40;99.90;;;;;;4968543;28;20049;-77
2023/08/12 03:27:48;;;;;;;17.33;15.52;;;20.40;99.90;;;;;;4982013;28;20489;-77
2023/08/12 03:30:14;;;;;;;17.50;15.35;;;20.40;99.90;;;;;;4978192;28;20040;-77
2023/08/12 03:32:39;;;;;;;17.67;15.27;;;20.40;99.90;;;;;;4962675;28;20054;-78
2023/08/12 03:35:05;;;;;;;17.63;15.82;;;20.30;99.90;;;;;;4981224;28;20047;-77
2023/08/12 03:37:31;;;;;;;16.30;14.60;;;20.40;99.90;;;;;;4982225;28;20117;-77
2023/08/12 03:39:56;;;;;;;18.70;16.05;;;20.40;99.90;;;;;;4978611;28;20082;-77
2023/08/12 03:42:22;;;;;;;17.75;15.10;;;20.30;99.90;;;;;;4966098;28;20039;-77
2023/08/12 03:44:48;;;;;;;20.10;15.93;;;20.30;99.90;;;;;;4983077;28;20705;-77
2023/08/12 03:47:13;;;;;;;18.08;15.02;;;20.30;99.90;;;;;;4984499;28;20049;-77
2023/08/12 03:49:39;;;;;;;17.95;15.43;;;20.20;99.90;;;;;;4982924;28;20113;-77
2023/08/12 03:52:06;;;;;;;15.93;14.30;;;20.20;99.90;;;;;;4973818;28;20157;-77
2023/08/12 03:54:32;;;;;;;18.58;15.70;;;20.20;99.90;;;;;;4980394;28;20076;-77
2023/08/12 03:56:58;;;;;;;17.08;15.23;;;20.10;99.90;;;;;;4958832;28;20529;-77
2023/08/12 03:59:24;;;;;;;17.88;15.25;;;20.20;99.90;;;;;;4985920;28;20069;-77
2023/08/12 04:01:49;;;;;;;18.42;15.35;;;20.20;99.90;;;;;;4969523;28;20402;-77
2023/08/12 04:04:15;;;;;;;19.92;15.93;;;20.20;99.90;;;;;;4984095;28;20561;-77
2023/08/12 04:06:41;;;;;;;18.48;15.90;;;20.10;99.90;;;;;;4980243;28;20046;-77
2023/08/12 04:09:06;;;;;;;17.40;15.27;;;20.10;99.90;;;;;;4977863;28;20129;-76
2023/08/12 04:11:32;;;;;;;19.23;15.85;;;20.10;99.90;;;;;;4984689;28;20062;-77
2023/08/12 04:13:58;;;;;;;19.15;16.15;;;20.10;99.90;;;;;;4981883;28;20035;-77
2023/08/12 04:16:23;;;;;;;18.08;15.63;;;20.10;99.90;;;;;;4973716;28;20061;-77
2023/08/12 04:18:49;;;;;;;19.63;16.25;;;20.00;99.90;;;;;;4986629;28;20132;-77
2023/08/12 04:21:15;;;;;;;20.65;16.85;;;20.10;99.90;;;;;;4987110;28;20142;-77
2023/08/12 04:23:40;;;;;;;18.67;16.63;;;20.10;99.90;;;;;;4974705;28;20046;-77
2023/08/12 04:26:06;;;;;;;21.70;17.45;;;20.10;99.90;;;;;;4983469;28;20089;-77
2023/08/12 04:28:32;;;;;;;18.63;16.42;;;20.10;99.90;;;;;;4959449;28;20065;-77
2023/08/12 04:30:57;;;;;;;18.52;15.77;;;20.10;99.90;;;;;;4983801;28;20047;-77
2023/08/12 04:33:23;;;;;;;19.27;17.02;;;20.10;99.90;;;;;;4974472;28;20125;-77
2023/08/12 04:35:50;;;;;;;19.05;17.08;;;20.10;99.90;;;;;;4984591;28;20400;-77
2023/08/12 04:38:15;;;;;;;21.55;19.25;;;20.10;99.90;;;;;;4959297;28;20038;-77
2023/08/12 04:40:42;;;;;;;20.40;18.25;;;20.20;99.90;;;;;;4984182;28;20145;-77
2023/08/12 04:43:09;;;;;;;20.13;17.67;;;20.20;99.90;;;;;;4976409;28;20447;-77
2023/08/12 04:45:35;;;;;;;21.17;18.73;;;20.20;99.90;;;;;;4966652;28;20492;-77
2023/08/12 04:48:00;;;;;;;20.20;18.00;;;20.20;99.90;;;;;;4979290;28;20038;-77
2023/08/12 04:50:30;;;;;;;23.70;19.33;;;20.20;99.90;;;;;;4961982;28;20049;-77
2023/08/12 04:52:56;;;;;;;20.67;17.83;;;20.20;99.90;;;;;;4972721;28;20081;-77
2023/08/12 04:55:21;;;;;;;20.10;17.90;;;20.20;99.90;;;;;;4981784;28;20108;-77
2023/08/12 04:57:47;;;;;;;22.13;19.13;;;20.20;99.90;;;;;;4981141;28;20058;-77
2023/08/12 05:00:13;;;;;;;21.10;18.85;;;20.20;99.90;;;;;;4978824;28;20062;-77
2023/08/12 05:02:39;;;;;;;22.67;19.10;;;20.20;99.90;;;;;;4975144;28;20412;-77
2023/08/12 05:05:05;;;;;;;21.52;19.25;;;20.20;99.90;;;;;;4963359;28;20052;-77
2023/08/12 05:07:31;;;;;;;20.67;18.55;;;20.20;99.90;;;;;;4979435;28;20046;-77
2023/08/12 05:09:57;;;;;;;22.80;18.80;;;20.20;99.90;;;;;;4976506;28;20453;-77
2023/08/12 05:12:22;;;;;;;21.20;18.80;;;20.20;99.90;;;;;;4981152;28;20050;-77
2023/08/12 05:14:48;;;;;;;26.92;19.95;;;20.20;99.90;;;;;;4972069;28;20042;-77
2023/08/12 05:17:14;;;;;;;24.92;21.73;;;20.20;99.90;;;;;;4971714;28;20058;-77
2023/08/12 05:19:39;;;;;;;24.17;20.20;;;20.20;99.90;;;;;;4987342;28;20046;-77
2023/08/12 05:22:05;;;;;;;24.08;21.52;;;20.20;99.90;;;;;;4984784;28;20215;-77
2023/08/12 05:24:31;;;;;;;23.20;20.58;;;20.20;99.90;;;;;;4981981;28;20046;-77
2023/08/12 05:26:57;;;;;;;24.73;21.73;;;20.20;99.90;;;;;;4981333;28;20046;-77
2023/08/12 05:29:22;;;;;;;28.05;22.40;;;20.20;99.90;;;;;;4989040;28;20116;-77
2023/08/12 05:31:48;;;;;;;24.80;22.15;;;20.20;99.90;;;;;;4977798;28;20066;-77
2023/08/12 05:34:14;;;;;;;27.98;23.80;;;20.20;99.90;;;;;;4975291;28;20043;-77
2023/08/12 05:36:39;;;;;;;24.77;22.00;;;20.20;99.90;;;;;;4985212;28;20117;-77
2023/08/12 05:39:05;;;;;;;26.60;23.15;;;20.30;99.90;;;;;;4983860;28;20098;-77
2023/08/12 05:41:31;;;;;;;28.38;24.35;;;20.30;99.90;;;;;;4982039;28;20061;-77
2023/08/12 05:43:57;;;;;;;25.30;22.55;;;20.30;99.90;;;;;;4988028;28;20129;-77
2023/08/12 05:46:23;;;;;;;29.23;23.92;;;20.30;99.90;;;;;;4981380;28;20038;-77
2023/08/12 05:48:48;;;;;;;26.15;23.38;;;20.40;99.90;;;;;;4961602;28;20042;-77
2023/08/12 05:51:14;;;;;;;27.50;23.17;;;20.40;99.90;;;;;;4968005;28;20035;-77
2023/08/12 05:53:40;;;;;;;25.70;23.00;;;20.40;99.90;;;;;;4977613;28;20043;-77
2023/08/12 05:56:05;;;;;;;25.70;23.02;;;20.40;99.90;;;;;;4957916;28;20051;-77
2023/08/12 05:58:31;;;;;;;25.35;22.83;;;20.50;99.90;;;;;;4985942;28;20038;-77
2023/08/12 06:00:57;;;;;;;26.75;23.95;;;20.50;99.90;;;;;;4979113;28;20328;-77
2023/08/12 06:03:22;;;;;;;25.60;22.63;;;20.50;99.90;;;;;;4978053;28;20050;-77
2023/08/12 06:05:49;;;;;;;25.70;22.98;;;20.60;99.90;;;;;;4980711;28;20053;-77
2023/08/12 06:08:14;;;;;;;29.48;24.60;;;20.70;99.90;;;;;;4966831;28;20050;-77
2023/08/12 06:10:40;;;;;;;25.55;22.85;;;20.80;99.90;;;;;;4985863;28;20422;-77
2023/08/12 06:13:06;;;;;;;26.42;22.70;;;20.80;99.90;;;;;;4986612;28;20065;-75
2023/08/12 06:15:33;;;;;;;25.85;23.30;;;20.90;99.90;;;;;;4982858;28;20730;-74
2023/08/12 06:17:59;;;;;;;22.80;20.08;;;21.00;99.90;;;;;;4962298;28;20055;-72
2023/08/12 06:20:25;;;;;;;22.88;20.70;;;21.10;99.90;;;;;;4989447;28;20647;-75
2023/08/12 06:22:52;;;;;;;23.00;20.70;;;21.20;99.90;;;;;;4971616;28;20042;-76
2023/08/12 06:25:18;;;;;;;21.42;18.50;;;21.30;99.90;;;;;;4989263;28;20043;-76
2023/08/12 06:27:47;;;;;;;21.20;19.10;;;21.40;99.90;;;;;;4961001;28;20054;-76
2023/08/12 06:30:13;;;;;;;21.88;19.50;;;21.50;99.90;;;;;;4987505;28;20064;-75
2023/08/12 06:32:39;;;;;;;22.00;19.77;;;21.50;99.90;;;;;;4969954;28;20366;-76
2023/08/12 06:35:06;;;;;;;22.38;20.08;;;21.50;99.90;;;;;;4987918;28;20635;-76
2023/08/12 06:37:31;;;;;;;21.90;19.80;;;21.50;99.90;;;;;;4984804;28;20042;-75
2023/08/12 06:39:57;;;;;;;20.95;18.85;;;21.60;99.90;;;;;;4986987;28;20042;-75
2023/08/12 06:42:23;;;;;;;22.25;20.02;;;21.50;99.90;;;;;;4981677;28;20054;-75
2023/08/12 06:44:57;;;;;;;21.95;19.33;;;21.60;99.90;;;;;;4975081;28;20466;-76
2023/08/12 06:47:23;;;;;;;21.33;19.23;;;21.60;99.90;;;;;;4984048;28;20050;-74
2023/08/12 06:49:49;;;;;;;22.52;20.25;;;21.50;99.90;;;;;;4984143;28;20084;-74
2023/08/12 06:52:18;;;;;;;22.80;20.27;;;21.60;99.90;;;;;;4984501;28;20042;-74
2023/08/12 06:54:43;;;;;;;23.23;18.17;;;21.60;99.90;;;;;;4985828;28;20046;-74
2023/08/12 06:57:11;;;;;;;20.52;18.45;;;21.60;99.90;;;;;;4977818;28;20061;-74
2023/08/12 06:59:37;;;;;;;19.23;17.33;;;21.60;99.90;;;;;;4984511;28;20506;-75
2023/08/12 07:02:03;;;;;;;19.88;17.52;;;21.60;99.90;;;;;;4978736;28;20457;-75
2023/08/12 07:04:28;;;;;;;19.27;16.63;;;21.50;99.90;;;;;;4976142;28;20054;-76
2023/08/12 07:06:58;;;;;;;17.42;15.55;;;21.60;99.90;;;;;;4989977;28;20395;-76
2023/08/12 07:09:24;;;;;;;16.95;15.27;;;21.50;99.90;;;;;;4985229;28;20109;-75
2023/08/12 07:11:49;;;;;;;17.67;15.20;;;21.50;99.90;;;;;;4970972;28;20038;-76
2023/08/12 07:14:15;;;;;;;17.60;15.77;;;21.50;99.90;;;;;;4986057;28;20740;-75
2023/08/12 07:16:41;;;;;;;17.45;15.65;;;21.50;99.90;;;;;;4983675;28;20126;-74
2023/08/12 07:19:06;;;;;;;16.15;14.40;;;21.50;99.90;;;;;;4985818;28;20049;-74
2023/08/12 07:21:32;;;;;;;17.27;14.68;;;21.50;99.90;;;;;;4968866;28;20064;-76
2023/08/12 07:23:58;;;;;;;16.90;14.73;;;21.40;99.90;;;;;;4978572;28;20042;-76
2023/08/12 07:26:24;;;;;;;19.10;16.25;;;21.40;99.90;;;;;;4982610;28;20046;-76
2023/08/12 07:28:49;;;;;;;18.60;15.05;;;21.40;99.90;;;;;;4962461;28;20081;-75
2023/08/12 07:31:15;;;;;;;17.30;15.50;;;21.40;99.90;;;;;;4965773;28;20046;-84
2023/08/12 07:33:41;;;;;;;15.20;13.70;;;21.30;99.90;;;;;;4986888;28;20470;-79
2023/08/12 07:36:06;;;;;;;17.50;15.45;;;21.30;99.90;;;;;;4974478;28;20089;-79
2023/08/12 07:38:32;;;;;;;17.38;15.52;;;21.30;99.90;;;;;;4985510;28;20038;-78
2023/08/12 07:40:58;;;;;;;18.85;15.23;;;21.20;99.90;;;;;;4979629;28;20043;-83
2023/08/12 07:43:24;;;;;;;16.95;15.15;;;21.20;99.90;;;;;;4980226;28;20034;-86
2023/08/12 07:45:53;;;;;;;16.33;14.38;;;21.20;99.90;;;;;;4982973;28;20050;-80
2023/08/12 07:48:20;;;;;;;16.30;14.55;;;21.20;99.90;;;;;;4977968;28;20058;-84
2023/08/12 07:50:48;;;;;;;17.98;15.43;;;21.10;99.90;;;;;;4985583;28;20038;-82
2023/08/12 07:53:15;;;;;;;17.25;15.25;;;21.10;99.90;;;;;;4983539;28;20050;-83
2023/08/12 07:55:41;;;;;;;17.27;15.50;;;21.10;99.90;;;;;;4970134;28;20512;-82
2023/08/12 07:58:07;;;;;;;17.48;14.77;;;21.00;99.90;;;;;;4975918;28;20522;-88
2023/08/12 08:00:33;;;;;;;17.80;15.77;;;21.00;99.90;;;;;;4956089;28;20065;-83
2023/08/12 08:03:06;;;;;;;16.08;14.25;;;21.00;99.90;;;;;;5067988;28;20456;-84
2023/08/12 08:05:32;;;;;;;15.63;13.23;;;21.00;99.90;;;;;;5062466;28;20052;-83
2023/08/12 08:07:57;;;;;;;16.50;13.80;;;21.00;99.90;;;;;;5062188;28;20507;-82
2023/08/12 08:10:23;;;;;;;15.70;14.07;;;21.00;99.90;;;;;;5061580;28;20484;-77
2023/08/12 08:12:49;;;;;;;15.80;13.55;;;21.00;99.90;;;;;;5059754;28;20070;-77
2023/08/12 08:15:15;;;;;;;14.23;12.77;;;21.00;99.90;;;;;;5053838;28;20045;-80
2023/08/12 08:17:40;;;;;;;16.75;13.82;;;21.00;99.90;;;;;;5062788;28;20037;-79
2023/08/12 08:20:07;;;;;;;15.43;13.90;;;20.90;99.90;;;;;;5064599;28;20048;-79
2023/08/12 08:22:32;;;;;;;16.60;14.87;;;21.00;99.90;;;;;;5065118;28;20087;-79
2023/08/12 08:24:59;;;;;;;16.00;13.98;;;20.90;99.90;;;;;;5062628;28;20084;-78
2023/08/12 08:27:24;;;;;;;18.85;14.52;;;21.00;99.90;;;;;;5064613;28;20472;-78
2023/08/12 08:29:50;;;;;;;17.58;15.80;;;20.90;99.90;;;;;;5063733;28;20044;-81
2023/08/12 08:32:16;;;;;;;17.08;15.18;;;20.90;99.90;;;;;;5056401;28;20083;-81
2023/08/12 08:34:42;;;;;;;19.08;15.77;;;20.90;99.90;;;;;;5057672;28;20053;-79
2023/08/12 08:37:08;;;;;;;15.35;13.75;;;20.90;99.90;;;;;;5064906;28;20143;-76
2023/08/12 08:39:34;;;;;;;16.38;14.60;;;20.90;99.90;;;;;;5064123;28;20541;-76
2023/08/12 08:42:00;;;;;;;16.00;14.00;;;20.90;99.90;;;;;;5062606;28;20080;-76
2023/08/12 08:44:31;;;;;;;14.98;13.38;;;20.90;99.90;;;;;;5060633;28;20123;-76
2023/08/12 08:46:59;;;;;;;15.23;13.65;;;20.90;99.90;;;;;;5056878;28;20051;-76
2023/08/12 08:49:26;;;;;;;17.80;15.90;;;20.90;99.90;;;;;;5056481;28;20086;-74
2023/08/12 08:51:52;;;;;;;15.70;14.10;;;20.90;99.90;;;;;;5056872;28;20430;-76
2023/08/12 08:54:19;;;;;;;16.02;14.27;;;20.90;99.90;;;;;;5054615;28;20083;-75
2023/08/12 08:56:48;;;;;;;15.43;13.82;;;20.90;99.90;;;;;;5061885;28;20037;-79
2023/08/12 08:59:13;;;;;;;17.38;14.23;;;20.90;99.90;;;;;;5060067;28;20047;-82
2023/08/12 09:01:40;;;;;;;16.52;13.75;;;20.90;99.90;;;;;;5058689;28;20045;-83
2023/08/12 09:04:07;;;;;;;16.60;14.93;;;20.90;99.90;;;;;;5053715;28;20045;-86
2023/08/12 09:06:36;;;;;;;14.77;13.32;;;20.90;99.90;;;;;;5057765;28;20084;-87
2023/08/12 09:09:04;;;;;;;14.15;12.10;;;21.00;99.90;;;;;;5059719;28;20048;-83
2023/08/12 09:11:31;;;;;;;13.57;12.05;;;21.00;99.90;;;;;;5064162;28;20091;-87
2023/08/12 09:13:56;;;;;;;12.52;11.25;;;21.00;99.90;;;;;;5053024;28;20048;-85
2023/08/12 09:16:22;;;;;;;13.25;10.73;;;21.00;99.90;;;;;;5048240;28;20089;-82
2023/08/12 09:18:55;;;;;;;11.95;10.73;;;21.00;99.90;;;;;;5050345;28;20148;-81
2023/08/12 09:21:21;;;;;;;11.63;10.43;;;21.00;99.90;;;;;;5042406;28;20041;-78
2023/08/12 09:23:47;;;;;;;12.02;10.85;;;21.00;99.90;;;;;;5048180;28;20451;-77
2023/08/12 09:26:14;;;;;;;13.03;11.60;;;21.00;99.90;;;;;;5047077;28;20474;-80
2023/08/12 09:28:41;;;;;;;16.45;13.57;;;20.90;99.90;;;;;;5042031;28;20339;-81
2023/08/12 09:31:07;;;;;;;14.23;11.30;;;20.90;99.90;;;;;;5051075;28;20049;-81
2023/08/12 09:33:39;;;;;;;15.65;12.02;;;20.90;99.90;;;;;;5051286;28;20059;-77
2023/08/12 09:36:05;;;;;;;12.05;9.70;;;20.80;99.90;;;;;;5049166;28;20045;-75
2023/08/12 09:38:31;;;;;;;10.90;9.77;;;20.80;99.90;;;;;;5041674;28;20129;-78
2023/08/12 09:40:57;;;;;;;12.30;9.95;;;20.80;99.90;;;;;;5040175;28;20041;-76
2023/08/12 09:43:29;;;;;;;11.65;9.07;;;20.80;99.90;;;;;;5048818;28;20155;-78
2023/08/12 09:45:59;;;;;;;10.60;8.15;;;20.80;99.90;;;;;;5050251;28;20086;-76
2023/08/12 09:48:26;;;;;;;10.70;9.13;;;20.80;99.90;;;;;;5047195;28;20872;-77
2023/08/12 09:50:53;;;;;;;10.87;8.80;;;20.70;99.90;;;;;;5064437;28;20076;-77
2023/08/12 09:53:19;;;;;;;11.07;9.93;;;20.70;99.90;;;;;;5049644;28;20043;-75
2023/08/12 09:55:47;;;;;;;11.82;9.88;;;20.70;99.90;;;;;;5049605;28;20590;-75
2023/08/12 09:58:17;;;;;;;10.48;9.38;;;20.70;99.90;;;;;;5039248;28;20042;-76
2023/08/12 10:00:45;;;;;;;8.75;7.70;;;20.70;99.90;;;;;;5044792;28;20045;-76
2023/08/12 10:03:14;;;;;;;8.82;7.55;;;20.70;99.90;;;;;;5063412;28;20484;-75
2023/08/12 10:05:40;;;;;;;8.27;7.45;;;20.70;99.90;;;;;;5042706;28;20076;-75
2023/08/12 10:08:07;;;;;;;9.30;8.13;;;20.70;99.90;;;;;;5049221;28;20056;-75
2023/08/12 10:10:35;;;;;;;7.88;7.07;;;20.70;99.90;;;;;;5033988;28;20041;-76
2023/08/12 10:13:02;;;;;;;8.07;6.55;;;20.70;99.90;;;;;;5050609;28;20043;-75
2023/08/12 10:15:28;;;;;;;7.40;6.53;;;20.70;99.90;;;;;;5048992;28;20574;-75
2023/08/12 10:17:55;;;;;;;7.60;6.88;;;20.70;99.90;;;;;;5039041;28;20052;-77
2023/08/12 10:20:23;;;;;;;8.60;7.40;;;20.70;99.90;;;;;;5040903;28;20084;-77
2023/08/12 10:22:49;;;;;;;8.13;7.18;;;20.70;99.90;;;;;;5049626;28;20045;-78
2023/08/12 10:25:17;;;;;;;7.40;6.63;;;20.70;99.90;;;;;;5046743;28;20037;-82
2023/08/12 10:27:43;;;;;;;6.35;5.45;;;20.70;99.90;;;;;;5048644;28;20584;-80
2023/08/12 10:30:10;;;;;;;6.93;5.30;;;20.70;99.90;;;;;;5045427;28;20062;-80
2023/08/12 10:32:36;;;;;;;6.07;5.47;;;20.70;99.90;;;;;;5038406;28;20049;-79
2023/08/12 10:35:02;;;;;;;6.50;4.97;;;20.70;99.90;;;;;;5043644;28;20053;-77
2023/08/12 10:37:33;;;;;;;7.00;4.93;;;20.70;99.90;;;;;;5046171;28;20087;-78
2023/08/12 10:39:59;;;;;;;6.15;5.50;;;20.70;99.90;;;;;;5061266;28;20373;-78
2023/08/12 10:42:45;;;;;;;7.07;6.15;;;20.60;99.90;;;;;;5048175;28;20555;-80
2023/08/12 10:45:13;;;;;;;6.10;5.28;;;20.60;99.90;;;;;;5047884;28;20507;-75
2023/08/12 10:47:58;;;;;;;5.30;4.80;;;20.60;99.90;;;;;;5064268;28;20571;-82
2023/08/12 10:50:26;;;;;;;6.60;5.03;;;20.50;99.90;;;;;;5026608;28;20064;-80
2023/08/12 10:52:52;;;;;;;;;;;20.40;99.90;;;;;;5043198;28;20033;-79
2023/08/12 10:55:24;;;;;;;6.85;4.45;;;20.30;99.90;;;;;;5043564;28;19936;-78
2023/08/12 10:57:51;;;;;;;6.32;4.70;;;20.20;99.90;;;;;;5049844;28;20032;-81
2023/08/12 11:00:23;;;;;;;;;;;20.20;99.90;;;;;;5040365;28;20068;-80
2023/08/12 11:02:53;;;;;;;6.80;5.40;;;20.10;99.90;;;;;;5048941;28;19925;-78
2023/08/12 11:05:20;;;;;;;6.25;4.43;;;20.10;99.90;;;;;;5040526;28;20034;-91
2023/08/12 11:07:58;;;;;;;6.87;5.17;;;20.10;99.90;;;;;;5045121;28;20055;-79
2023/08/12 11:10:25;;;;;;;5.72;4.93;;;20.20;99.90;;;;;;5036888;28;20472;-78
2023/08/12 11:12:56;;;;;;;5.03;4.40;;;20.20;99.90;;;;;;5047236;28;20038;-75
2023/08/12 11:15:41;;;;;;;4.80;4.30;;;20.20;99.90;;;;;;5063074;28;20060;-74
2023/08/12 11:18:09;;;;;;;6.95;4.20;;;20.30;99.90;;;;;;5047870;28;20049;-76
2023/08/12 11:20:35;;;;;;;4.35;3.95;;;20.50;99.90;;;;;;5046490;28;20053;-75
2023/08/12 11:23:03;;;;;;;3.28;2.38;;;20.60;99.90;;;;;;5045998;28;20040;-75
2023/08/12 11:25:30;;;;;;;2.70;2.05;;;20.80;99.90;;;;;;5048145;28;20049;-75
2023/08/12 11:27:56;;;;;;;1.50;1.40;;;20.90;99.90;;;;;;5040905;28;20044;-74
2023/08/12 11:30:22;;;;;;;2.25;1.70;;;21.00;99.90;;;;;;5037926;28;20530;-77
2023/08/12 11:32:55;;;;;;;1.83;1.52;;;21.00;99.90;;;;;;5039785;28;20086;-76
2023/08/12 11:35:22;;;;;;;1.40;1.30;;;21.00;99.90;;;;;;5045176;28;20417;-76
2023/08/12 11:37:55;;;;;;;1.45;1.20;;;21.00;99.90;;;;;;5042372;28;20116;-77
2023/08/12 11:40:21;;;;;;;1.20;1.10;;;20.90;99.90;;;;;;5041621;28;20032;-76
2023/08/12 11:42:49;;;;;;;1.50;1.02;;;20.90;99.90;;;;;;5042713;28;20053;-77
2023/08/12 11:45:20;;;;;;;2.55;0.90;;;20.80;99.90;;;;;;5045995;28;20049;-79
2023/08/12 11:47:55;;;;;;;1.45;1.13;;;20.70;99.90;;;;;;5043846;28;20045;-75
2023/08/12 11:50:26;;;;;;;1.25;1.00;;;20.70;99.90;;;;;;5043603;28;20651;-78
2023/08/12 11:52:53;;;;;;;1.10;1.00;;;20.70;99.90;;;;;;5044573;28;20033;-84
2023/08/12 11:55:19;;;;;;;1.77;1.10;;;20.80;99.90;;;;;;5063344;28;20060;-76
2023/08/12 11:57:45;;;;;;;0.90;0.70;;;20.80;99.90;;;;;;5045318;28;20480;-77
2023/08/12 12:00:18;;;;;;;1.27;0.87;;;20.90;99.90;;;;;;5038529;28;20464;-80
2023/08/12 12:02:48;;;;;;;0.70;0.60;;;20.90;99.90;;;;;;5047452;28;20065;-81
2023/08/12 12:05:14;;;;;;;1.58;0.70;;;20.90;99.90;;;;;;5046091;28;20480;-76
2023/08/12 12:07:41;;;;;;;0.52;0.52;;;21.00;99.90;;;;;;5046919;28;20041;-76
2023/08/12 12:10:07;;;;;;;2.58;0.82;;;21.10;99.90;;;;;;5041383;28;20049;-80
2023/08/12 12:12:37;;;;;;;0.95;0.63;;;21.20;99.90;;;;;;5046815;28;20057;-75
2023/08/12 12:15:04;;;;;;;1.35;0.50;;;21.30;99.90;;;;;;5046186;28;20055;-75
2023/08/12 12:17:30;;;;;;;;;;;21.50;99.90;;;;;;5038160;28;20058;-75
2023/08/12 12:19:57;;;;;;;1.40;0.50;;;21.60;99.90;;;;;;5034751;28;19928;-75
2023/08/12 12:22:32;;;;;;;1.65;0.50;;;21.70;99.90;;;;;;5047427;28;20523;-78
2023/08/12 12:25:07;;;;;;;0.60;0.60;;;21.80;99.90;;;;;;5041886;28;20548;-79
2023/08/12 12:27:35;;;;;;;0.93;0.77;;;22.00;99.90;;;;;;5059978;28;20041;-76
2023/08/12 12:30:01;;;;;;;1.65;0.68;;;22.10;99.90;;;;;;5046569;28;20040;-77
2023/08/12 12:32:27;;;;;;;0.70;0.70;;;22.30;99.90;;;;;;5035097;28;20037;-76